Time;durP1;ratioP1;P1;durP2;ratioP2;P2;SDS_P1;SDS_P2;PMS_P1;PMS_P2;Temp;Humidity;BMP_temperature;BMP_pressure;BME280_temperature;BME280_humidity;BME280_pressure;Samples;Min_cycle;Max_cycle;Signal;HPM_P1;HPM_P2
2022/05/24 00:01:03;;;;;;;;;;;14.80;99.90;;;;;;5051338;28;19935;-66
2022/05/24 00:03:29;;;;;;;;;;;14.80;99.90;;;;;;5063190;28;19931;-67
2022/05/24 00:05:58;;;;;;;;;;;14.80;99.90;;;;;;5079221;28;19924;-67
2022/05/24 00:08:25;;;;;;;;;;;14.80;99.90;;;;;;5071629;28;19924;-67
2022/05/24 00:10:53;;;;;;;;;;;14.80;99.90;;;;;;5070987;28;20354;-67
2022/05/24 00:13:19;;;;;;;;;;;14.80;99.90;;;;;;5071105;28;19973;-66
2022/05/24 00:15:46;;;;;;;;;;;14.80;99.90;;;;;;5071053;28;19924;-66
2022/05/24 00:18:14;;;;;;;;;;;14.80;99.90;;;;;;5070089;28;19929;-66
2022/05/24 00:20:42;;;;;;;;;;;14.80;99.90;;;;;;5078056;28;19928;-66
2022/05/24 00:23:11;;;;;;;;;;;14.80;99.90;;;;;;5070385;28;19924;-67
2022/05/24 00:25:39;;;;;;;;;;;14.80;99.90;;;;;;5083871;28;19988;-66
2022/05/24 00:28:07;;;;;;;;;;;14.80;99.90;;;;;;5091174;28;19932;-67
2022/05/24 00:30:33;;;;;;;;;;;14.80;99.90;;;;;;5090946;28;19932;-67
2022/05/24 00:33:00;;;;;;;;;;;14.90;99.90;;;;;;5091005;28;19928;-66
2022/05/24 00:35:27;;;;;;;;;;;15.00;99.90;;;;;;5090856;28;19928;-66
2022/05/24 00:37:54;;;;;;;;;;;15.00;99.90;;;;;;5090780;28;19928;-66
2022/05/24 00:40:28;;;;;;;;;;;15.10;99.90;;;;;;5091009;28;19931;-66
2022/05/24 00:42:55;;;;;;;;;;;15.00;99.90;;;;;;5090993;28;20410;-66
2022/05/24 00:45:24;;;;;;;;;;;14.90;99.90;;;;;;5090777;28;19924;-67
2022/05/24 00:47:53;;;;;;;;;;;14.90;99.90;;;;;;5090647;28;19989;-65
2022/05/24 00:50:24;;;;;;;;;;;14.80;99.90;;;;;;5090806;28;19931;-66
2022/05/24 00:52:54;;;;;;;;;;;14.90;99.90;;;;;;5091080;28;19924;-65
2022/05/24 00:55:22;;;;;;;;;;;14.80;99.90;;;;;;5090763;28;19924;-66
2022/05/24 00:57:53;;;;;;;;;;;14.80;99.90;;;;;;5090758;28;19928;-66
2022/05/24 01:00:22;;;;;;;;;;;14.70;99.90;;;;;;5090536;28;19931;-66
2022/05/24 01:02:49;;;;;;;;;;;14.60;99.90;;;;;;5090384;28;20027;-66
2022/05/24 01:05:20;;;;;;;;;;;14.60;99.90;;;;;;5090116;28;19977;-65
2022/05/24 01:07:47;;;;;;;;;;;14.60;99.90;;;;;;5090648;28;19924;-65
2022/05/24 01:10:15;;;;;;;;;;;14.50;99.90;;;;;;5090297;28;19932;-66
2022/05/24 01:12:44;;;;;;;;;;;14.50;99.90;;;;;;5090306;28;19924;-65
2022/05/24 01:15:14;;;;;;;;;;;14.40;99.90;;;;;;5089892;28;19928;-65
2022/05/24 01:17:41;;;;;;;;;;;14.40;99.90;;;;;;5090248;28;19932;-65
2022/05/24 01:20:09;;;;;;;;;;;14.40;99.90;;;;;;5090107;28;20399;-65
2022/05/24 01:22:43;;;;;;;;;;;14.40;99.90;;;;;;5090313;28;19924;-66
2022/05/24 01:25:16;;;;;;;;;;;14.40;99.90;;;;;;5089994;28;19928;-66
2022/05/24 01:27:44;;;;;;;;;;;14.30;99.90;;;;;;5089918;28;20292;-65
2022/05/24 01:30:11;;;;;;;;;;;14.30;99.90;;;;;;5089560;28;19924;-66
2022/05/24 01:38:08;;;;;;;;;;;14.20;99.90;;;;;;5089909;28;19927;-65
2022/05/24 01:40:40;;;;;;;;;;;14.20;99.90;;;;;;5089462;28;20390;-66
2022/05/24 01:43:08;;;;;;;;;;;14.20;99.90;;;;;;5090082;28;19924;-66
2022/05/24 01:45:37;;;;;;;;;;;14.10;99.90;;;;;;5089770;28;19924;-65
2022/05/24 01:48:05;;;;;;;;;;;14.00;99.90;;;;;;5089811;28;19931;-65
2022/05/24 01:50:33;;;;;;;;;;;14.00;99.90;;;;;;5089670;28;19931;-65
2022/05/24 01:53:01;;;;;;;;;;;14.00;99.90;;;;;;5089784;28;19924;-66
2022/05/24 01:55:30;;;;;;;;;;;14.00;99.90;;;;;;5089813;28;19924;-65
2022/05/24 01:57:59;;;;;;;;;;;14.00;99.90;;;;;;5089251;28;19924;-66
2022/05/24 02:00:27;;;;;;;;;;;13.90;99.90;;;;;;5089663;28;20396;-66
2022/05/24 02:02:54;;;;;;;;;;;13.90;99.90;;;;;;5089850;28;19932;-65
2022/05/24 02:05:29;;;;;;;;;;;13.90;99.90;;;;;;5089425;28;20418;-65
2022/05/24 02:07:56;;;;;;;;;;;13.80;99.90;;;;;;5089727;28;20359;-65
2022/05/24 02:10:23;;;;;;;;;;;13.90;99.90;;;;;;5089335;28;19928;-66
2022/05/24 02:12:53;;;;;;;;;;;13.80;99.90;;;;;;5090056;28;19932;-65
2022/05/24 02:15:21;;;;;;;;;;;13.80;99.90;;;;;;5089597;28;20352;-66
2022/05/24 02:17:52;;;;;;;;;;;13.70;99.90;;;;;;5089586;28;19970;-67
2022/05/24 02:20:21;;;;;;;;;;;13.80;99.90;;;;;;5089742;28;19924;-67
2022/05/24 02:22:49;;;;;;;;;;;13.70;99.90;;;;;;5089628;28;19924;-67
2022/05/24 02:25:18;;;;;;;;;;;13.60;99.90;;;;;;5089276;28;20348;-67
2022/05/24 02:27:46;;;;;;;;;;;13.60;99.90;;;;;;5089570;28;19928;-67
2022/05/24 02:30:13;;;;;;;;;;;13.60;99.90;;;;;;5089428;28;20376;-68
2022/05/24 02:32:40;;;;;;;;;;;13.60;99.90;;;;;;5089730;28;19924;-67
2022/05/24 02:35:09;;;;;;;;;;;13.50;99.90;;;;;;5089349;28;19973;-66
2022/05/24 02:37:36;;;;;;;;;;;13.50;99.90;;;;;;5089341;28;19934;-67
2022/05/24 02:42:47;;;;;;;;;;;13.40;99.90;;;;;;5091185;28;20332;-67
2022/05/24 02:45:14;;;;;;;;;;;13.40;99.90;;;;;;5092670;28;20456;-67
2022/05/24 02:47:41;;;;;;;;;;;13.40;99.90;;;;;;5093331;28;20349;-67
2022/05/24 02:50:11;;;;;;;;;;;13.40;99.90;;;;;;5092793;28;19924;-68
2022/05/24 02:52:38;;;;;;;;;;;13.40;99.90;;;;;;5093232;28;19999;-67
2022/05/24 02:55:05;;;;;;;;;;;13.30;99.90;;;;;;5093068;28;19924;-66
2022/05/24 02:57:34;;;;;;;;;;;13.30;99.90;;;;;;5093049;28;19935;-67
2022/05/24 03:00:00;;;;;;;;;;;13.20;99.90;;;;;;5092674;28;19928;-67
2022/05/24 03:02:27;;;;;;;;;;;13.40;99.90;;;;;;5092927;28;19928;-67
2022/05/24 03:04:54;;;;;;;;;;;13.40;99.90;;;;;;5092845;28;19952;-67
2022/05/24 03:10:02;;;;;;;;;;;13.50;99.90;;;;;;5038259;28;19931;-67
2022/05/24 03:15:15;;;;;;;;;;;13.40;99.90;;;;;;5093870;28;19920;-67
2022/05/24 03:17:41;;;;;;;;;;;13.40;99.90;;;;;;5092520;28;19968;-67
2022/05/24 03:20:09;;;;;;;;;;;13.40;99.90;;;;;;5092399;28;20346;-67
2022/05/24 03:22:37;;;;;;;;;;;13.30;99.90;;;;;;5092509;28;20346;-68
2022/05/24 03:25:07;;;;;;;;;;;13.30;99.90;;;;;;5092281;28;19970;-66
2022/05/24 03:27:33;;;;;;;;;;;13.30;99.90;;;;;;5092210;28;20357;-68
2022/05/24 03:30:00;;;;;;;;;;;13.40;99.90;;;;;;5092259;28;19986;-68
2022/05/24 03:32:27;;;;;;;;;;;13.40;99.90;;;;;;5092222;28;19932;-67
2022/05/24 03:34:54;;;;;;;;;;;13.50;99.90;;;;;;5092351;28;19928;-68
2022/05/24 03:37:21;;;;;;;;;;;13.40;99.90;;;;;;5092289;28;19923;-67
2022/05/24 03:39:49;;;;;;;;;;;13.40;99.90;;;;;;5091822;28;20014;-67
2022/05/24 03:42:17;;;;;;;;;;;13.40;99.90;;;;;;5092239;28;19931;-67
2022/05/24 03:44:44;;;;;;;;;;;13.40;99.90;;;;;;5092023;28;19924;-67
2022/05/24 03:47:10;;;;;;;;;;;13.40;99.90;;;;;;5092184;28;19924;-68
2022/05/24 03:49:37;;;;;;;;;;;13.40;99.90;;;;;;5091861;28;20395;-67
2022/05/24 03:52:04;;;;;;;;;;;13.30;99.90;;;;;;5092077;28;20288;-66
2022/05/24 03:54:32;;;;;;;;;;;13.30;99.90;;;;;;5091189;28;19956;-67
2022/05/24 03:59:45;;;;;;;;;;;13.30;99.90;;;;;;5091619;28;20399;-67
2022/05/24 04:02:12;;;;;;;;;;;13.30;99.90;;;;;;5091776;28;19924;-67
2022/05/24 04:04:39;;;;;;;;;;;13.20;99.90;;;;;;5091401;28;19924;-67
2022/05/24 04:07:06;;;;;;;;;;;13.20;99.90;;;;;;5091552;28;19928;-68
2022/05/24 04:09:33;;;;;;;;;;;13.20;99.90;;;;;;5091370;28;19928;-66
2022/05/24 04:12:01;;;;;;;;;;;13.20;99.90;;;;;;5091973;28;19924;-67
2022/05/24 04:14:31;;;;;;;;;;;13.30;99.90;;;;;;5091405;28;19932;-67
2022/05/24 04:16:57;;;;;;;;;;;13.30;99.90;;;;;;5091751;28;19969;-67
2022/05/24 04:19:24;;;;;;;;;;;13.30;99.90;;;;;;5091126;28;20426;-67
2022/05/24 04:21:52;;;;;;;;;;;13.30;99.90;;;;;;5091351;28;19924;-67
2022/05/24 04:24:20;;;;;;;;;;;13.40;99.90;;;;;;5091389;28;19924;-67
2022/05/24 04:26:48;;;;;;;;;;;13.30;99.90;;;;;;5091341;28;19924;-67
2022/05/24 04:29:16;;;;;;;;;;;13.40;99.90;;;;;;5090959;28;20343;-66
2022/05/24 04:31:43;;;;;;;;;;;13.40;99.90;;;;;;5091155;28;20391;-67
2022/05/24 04:34:10;;;;;;;;;;;13.40;99.90;;;;;;5090809;28;19924;-67
2022/05/24 04:36:37;;;;;;;;;;;13.40;99.90;;;;;;5091445;28;19932;-68
2022/05/24 04:39:04;;;;;;;;;;;13.40;99.90;;;;;;5090843;28;19924;-66
2022/05/24 04:44:14;;;;;;;;;;;13.20;99.90;;;;;;5050052;28;19927;-67
2022/05/24 04:49:26;;;;;;;;;;;13.20;99.90;;;;;;5090882;28;19924;-67
2022/05/24 04:51:53;;;;;;;;;;;13.10;99.90;;;;;;5091101;28;19966;-67
2022/05/24 04:54:21;;;;;;;;;;;13.10;99.90;;;;;;5090474;28;19924;-67
2022/05/24 04:56:48;;;;;;;;;;;13.00;99.90;;;;;;5090568;28;19977;-67
2022/05/24 04:59:16;;;;;;;;;;;13.00;99.90;;;;;;5090399;28;19936;-67
2022/05/24 05:01:44;;;;;;;;;;;12.80;99.90;;;;;;5080319;28;19933;-67
2022/05/24 05:04:12;;;;;;;;;;;12.70;99.90;;;;;;5063090;28;20297;-67
2022/05/24 05:06:42;;;;;;;;;;;12.50;99.90;;;;;;5069809;28;20342;-67
2022/05/24 05:09:09;;;;;;;;;;;12.40;99.90;;;;;;5069958;28;19974;-67
2022/05/24 05:11:37;;;;;;;;;;;12.30;99.90;;;;;;5060033;28;20059;-67
2022/05/24 05:14:05;;;;;;;;;;;12.10;99.90;;;;;;5050164;28;19924;-67
2022/05/24 05:16:32;;;;;;;;;;;12.00;99.90;;;;;;5050214;28;20002;-66
2022/05/24 05:19:01;;;;;;;;;;;11.90;99.90;;;;;;5049670;28;19971;-67
2022/05/24 05:21:30;;;;;;;;;;;11.80;99.90;;;;;;5050021;28;19947;-67
2022/05/24 05:23:58;;;;;;;;;;;11.70;99.90;;;;;;5049938;28;19924;-67
2022/05/24 05:26:24;;;;;;;;;;;11.70;99.90;;;;;;5049717;28;19931;-66
2022/05/24 05:28:51;;;;;;;;;;;11.70;99.90;;;;;;5049963;28;19971;-67
2022/05/24 05:31:17;;;;;;;;;;;11.70;99.90;;;;;;5050065;28;19990;-68
2022/05/24 05:33:44;;;;;;;;;;;11.60;99.90;;;;;;5049896;28;19925;-66
2022/05/24 05:36:12;;;;;;;;;;;11.50;99.90;;;;;;5051759;28;20017;-66
2022/05/24 05:38:45;;;;;;;;;;;11.50;99.90;;;;;;5069555;28;19925;-67
2022/05/24 05:41:12;;;;;;;;;;;11.50;99.90;;;;;;5069530;28;19994;-67
2022/05/24 05:43:39;;;;;;;;;;;11.50;99.90;;;;;;5069565;28;19924;-66
2022/05/24 05:46:07;;;;;;;;;;;11.50;99.90;;;;;;5069898;28;19928;-67
2022/05/24 05:48:34;;;;;;;;;;;11.40;99.90;;;;;;5069384;28;19932;-67
2022/05/24 05:51:01;;;;;;;;;;;11.40;99.90;;;;;;5069609;28;19925;-67
2022/05/24 05:53:29;;;;;;;;;;;11.40;99.90;;;;;;5069616;28;20023;-67
2022/05/24 05:55:56;;;;;;;;;;;11.50;99.90;;;;;;5069722;28;19928;-67
2022/05/24 05:58:23;;;;;;;;;;;11.50;99.90;;;;;;5069620;28;19933;-67
2022/05/24 06:00:50;;;;;;;;;;;11.30;99.90;;;;;;5069505;28;19925;-66
2022/05/24 06:03:16;;;;;;;;;;;11.40;99.90;;;;;;5069563;28;19924;-68
2022/05/24 06:05:43;;;;;;;;;;;11.40;99.90;;;;;;5069389;28;20015;-67
2022/05/24 06:08:11;;;;;;;;;;;11.40;99.90;;;;;;5069489;28;19935;-67
2022/05/24 06:10:40;;;;;;;;;;;11.50;99.90;;;;;;5065282;28;19944;-67
2022/05/24 06:13:07;;;;;;;;;;;11.50;99.90;;;;;;5049723;28;19936;-67
2022/05/24 06:15:35;;;;;;;;;;;11.50;99.90;;;;;;5049341;28;20457;-68
2022/05/24 06:18:01;;;;;;;;;;;11.60;99.90;;;;;;5053166;28;19925;-67
2022/05/24 06:20:29;;;;;;;;;;;11.70;99.90;;;;;;5053207;28;19924;-67
2022/05/24 06:22:57;;;;;;;;;;;11.80;99.90;;;;;;5059716;28;19946;-67
2022/05/24 06:25:25;;;;;;;;;;;11.90;99.90;;;;;;5081379;28;19925;-66
2022/05/24 06:27:54;;;;;;;;;;;12.10;99.90;;;;;;5072945;28;20273;-67
2022/05/24 06:30:21;;;;;;;;;;;12.20;99.90;;;;;;5073345;28;19925;-68
2022/05/24 06:32:48;;;;;;;;;;;12.30;99.90;;;;;;5073153;28;19932;-67
2022/05/24 06:35:15;;;;;;;;;;;12.30;99.90;;;;;;5072957;28;20277;-66
2022/05/24 06:37:42;;;;;;;;;;;12.40;99.90;;;;;;5072811;28;20343;-67
2022/05/24 06:40:10;;;;;;;;;;;12.50;99.90;;;;;;5072545;28;20311;-67
2022/05/24 06:42:37;;;;;;;;;;;12.50;99.90;;;;;;5073135;28;20460;-65
2022/05/24 06:45:06;;;;;;;;;;;12.50;99.90;;;;;;5072627;28;19925;-68
2022/05/24 06:47:33;;;;;;;;;;;12.60;99.90;;;;;;5072929;28;20376;-67
2022/05/24 06:50:00;;;;;;;;;;;12.60;99.90;;;;;;5072831;28;19924;-67
2022/05/24 06:52:26;;;;;;;;;;;12.70;99.90;;;;;;5072807;28;19928;-66
2022/05/24 06:54:54;;;;;;;;;;;12.80;99.90;;;;;;5072405;28;20357;-67
2022/05/24 06:57:21;;;;;;;;;;;13.00;99.90;;;;;;5073054;28;20035;-66
2022/05/24 07:02:35;;;;;;;;;;;13.20;99.90;;;;;;5072964;28;19921;-67
2022/05/24 07:05:03;;;;;;;;;;;12.90;99.90;;;;;;5072407;28;20027;-67
2022/05/24 07:07:30;;;;;;;;;;;12.90;99.90;;;;;;5072633;28;19925;-67
2022/05/24 07:09:57;;;;;;;;;;;12.90;99.90;;;;;;5071940;28;19925;-68
2022/05/24 07:12:24;;;;;;;;;;;13.00;99.90;;;;;;5053643;28;19974;-67
2022/05/24 07:14:51;;;;;;;;;;;13.10;99.90;;;;;;5052419;28;20289;-66
2022/05/24 07:17:18;;;;;;;;;;;13.10;99.90;;;;;;5052561;28;19925;-67
2022/05/24 07:19:47;;;;;;;;;;;13.20;99.90;;;;;;5051958;28;19925;-67
2022/05/24 07:22:14;;;;;;;;;;;13.40;99.90;;;;;;5052373;28;19932;-66
2022/05/24 07:24:41;;;;;;;;;;;13.50;99.90;;;;;;5051775;28;19925;-66
2022/05/24 07:27:10;;;;;;;;;;;13.60;99.90;;;;;;5052005;28;19928;-66
2022/05/24 07:29:37;;;;;;;;;;;13.70;99.90;;;;;;5051472;28;19944;-66
2022/05/24 07:32:05;;;;;;;;;;;13.60;99.90;;;;;;5052225;28;19925;-66
2022/05/24 07:34:32;;;;;;;;;;;13.70;99.90;;;;;;5051928;28;20471;-67
2022/05/24 07:37:01;;;;;;;;;;;13.90;99.90;;;;;;5051927;28;19924;-68
2022/05/24 07:39:28;;;;;;;;;;;14.10;99.90;;;;;;5051596;28;19924;-67
2022/05/24 07:47:27;;;;;;;;;;;14.50;99.90;;;;;;5051868;28;19929;-66
2022/05/24 07:49:54;;;;;;;;;;;14.60;99.90;;;;;;5051382;28;19931;-68
2022/05/24 07:52:22;;;;;;;;;;;14.40;99.90;;;;;;5051889;28;19932;-67
2022/05/24 07:54:49;;;;;;;;;;;14.40;99.90;;;;;;5051613;28;19929;-67
2022/05/24 07:57:16;;;;;;;;;;;14.30;99.90;;;;;;5051883;28;20347;-67
2022/05/24 07:59:47;;;;;;;;;;;14.40;99.90;;;;;;5051353;28;19925;-66
2022/05/24 08:02:14;;;;;;;;;;;14.60;99.90;;;;;;5051890;28;20036;-67
2022/05/24 08:04:41;;;;;;;;;;;14.70;99.90;;;;;;5051236;28;20012;-66
2022/05/24 08:07:08;;;;;;;;;;;14.80;99.90;;;;;;5051547;28;19925;-67
2022/05/24 08:09:36;;;;;;;;;;;14.90;99.90;;;;;;5051094;28;20473;-68
2022/05/24 08:12:03;;;;;;;;;;;14.70;99.90;;;;;;5051489;28;19986;-67
2022/05/24 08:14:30;;;;;;;;;;;14.60;99.90;;;;;;5067949;28;19960;-67
2022/05/24 08:16:57;;;;;;;;;;;14.70;99.90;;;;;;5051775;28;19925;-67
2022/05/24 08:19:23;;;;;;;;;;;14.80;99.90;;;;;;5051065;28;19975;-67
2022/05/24 08:21:50;;;;;;;;;;;14.70;99.90;;;;;;5051566;28;20437;-67
2022/05/24 08:24:17;;;;;;;;;;;14.90;99.90;;;;;;5051233;28;19925;-67
2022/05/24 08:26:45;;;;;;;;;;;15.10;99.90;;;;;;5051594;28;19924;-67
2022/05/24 08:29:12;;;;;;;;;;;15.30;99.90;;;;;;5067488;28;20454;-67
2022/05/24 08:31:39;;;;;;;;;;;15.60;99.90;;;;;;5051161;28;19928;-65
2022/05/24 08:34:07;;;;;;;;;;;15.30;99.90;;;;;;5051062;28;19929;-68
2022/05/24 08:36:35;;;;;;;;;;;15.50;99.90;;;;;;5051186;28;19925;-67
2022/05/24 08:39:03;;;;;;;;;;;15.50;99.90;;;;;;5050346;28;19932;-67
2022/05/24 08:41:36;;;;;;;;;;;15.40;99.90;;;;;;5050154;28;19924;-66
2022/05/24 08:49:54;;;;;;;;;;;14.90;99.90;;;;;;5050409;28;19925;-67
2022/05/24 08:52:22;;;;;;;;;;;15.10;99.90;;;;;;5050210;28;19931;-67
2022/05/24 08:54:49;;;;;;;;;;;14.90;99.90;;;;;;5050329;28;19982;-66
2022/05/24 08:57:20;;;;;;;;;;;15.10;99.90;;;;;;5050803;28;19925;-67
2022/05/24 08:59:50;;;;;;;;;;;15.10;99.90;;;;;;5050208;28;19925;-67
2022/05/24 09:02:20;;;;;;;;;;;15.30;99.90;;;;;;5050432;28;19929;-67
2022/05/24 09:04:46;;;;;;;;;;;15.60;99.90;;;;;;5050091;28;19986;-66
2022/05/24 09:07:17;;;;;;;;;;;15.70;99.90;;;;;;5050095;28;19925;-67
2022/05/24 09:09:49;;;;;;;;;;;15.60;99.90;;;;;;5049921;28;19925;-68
2022/05/24 09:12:23;;;;;;;;;;;15.50;99.90;;;;;;5067716;28;19928;-68
2022/05/24 09:14:55;;;;;;;;;;;15.50;99.90;;;;;;5070041;28;20365;-67
2022/05/24 09:17:32;;;;;;;;;;;15.60;99.90;;;;;;5070088;28;19924;-67
2022/05/24 09:19:58;;;;;;;;;;;15.60;99.90;;;;;;5069837;28;19931;-68
2022/05/24 09:22:31;;;;;;;;;;;16.00;99.90;;;;;;5070075;28;19932;-66
2022/05/24 09:24:58;;;;;;;;;;;16.30;99.90;;;;;;5069815;28;19924;-66
2022/05/24 09:27:26;;;;;;;;;;;16.30;99.90;;;;;;5069968;28;20449;-67
2022/05/24 09:29:54;;;;;;;;;;;16.10;99.90;;;;;;5069524;28;19925;-66
2022/05/24 09:32:22;;;;;;;;;;;16.10;99.90;;;;;;5069932;28;19929;-67
2022/05/24 09:35:00;;;;;;;;;;;15.90;99.90;;;;;;5069773;28;19929;-66
2022/05/24 09:37:28;;;;;;;;;;;15.70;99.90;;;;;;5069809;28;19932;-67
2022/05/24 09:39:59;;;;;;;;;;;15.80;99.90;;;;;;5069452;28;19928;-67
2022/05/24 09:42:28;;;;;;;;;;;15.90;99.90;;;;;;5069893;28;19928;-67
2022/05/24 09:44:58;;;;;;;;;;;16.30;99.90;;;;;;5069785;28;19925;-66
2022/05/24 09:47:28;;;;;;;;;;;16.70;99.90;;;;;;5069771;28;19924;-67
2022/05/24 09:50:16;;;;;;;;;;;16.60;99.90;;;;;;5069403;28;19971;-68
2022/05/24 09:52:46;;;;;;;;;;;16.60;99.90;;;;;;5069590;28;19932;-67
2022/05/24 09:55:22;;;;;;;;;;;16.50;99.90;;;;;;5069651;28;20031;-65
2022/05/24 09:57:49;;;;;;;;;;;16.40;99.90;;;;;;5069959;28;19928;-67
2022/05/24 10:00:20;;;;;;;;;;;16.40;99.90;;;;;;5069508;28;19929;-68
2022/05/24 10:02:48;;;;;;;;;;;16.20;99.90;;;;;;5069773;28;20326;-67
2022/05/24 10:05:18;;;;;;;;;;;16.00;99.90;;;;;;5069250;28;19924;-68
2022/05/24 10:07:54;;;;;;;;;;;16.00;99.90;;;;;;5069427;28;19924;-67
2022/05/24 10:10:25;;;;;;;;;;;16.00;99.90;;;;;;5069538;28;19977;-68
2022/05/24 10:12:57;;;;;;;;;;;16.10;99.90;;;;;;5070951;28;19924;-67
2022/05/24 10:15:28;;;;;;;;;;;16.30;99.90;;;;;;5069456;28;19959;-67
2022/05/24 10:18:02;;;;;;;;;;;16.40;99.90;;;;;;5070764;28;20011;-67
2022/05/24 10:20:33;;;;;;;;;;;16.30;99.90;;;;;;5069462;28;20015;-67
2022/05/24 10:23:04;;;;;;;;;;;16.30;99.90;;;;;;5069553;28;20396;-67
2022/05/24 10:25:35;;;;;;;;;;;16.30;99.90;;;;;;5069300;28;19928;-69
2022/05/24 10:28:08;;;;;;;;;;;16.30;99.90;;;;;;5069448;28;20380;-68
2022/05/24 10:30:43;;;;;;;;;;;16.40;99.90;;;;;;5069028;28;20403;-67
2022/05/24 10:38:55;;;;;;;;;;;17.40;99.90;;;;;;5050974;22;20007;-65
2022/05/24 10:41:25;;;;;;;;;;;17.50;99.90;;;;;;5070353;28;20004;-65
2022/05/24 10:43:57;;;;;;;;;;;17.70;99.90;;;;;;5070084;28;19979;-65
2022/05/24 10:46:28;;;;;;;;;;;17.10;99.90;;;;;;5069170;28;20018;-65
2022/05/24 10:49:01;;;;;;;;;;;17.20;99.90;;;;;;5068671;28;20380;-65
2022/05/24 10:51:32;;;;;;;;;;;16.90;99.90;;;;;;5070629;28;19924;-66
2022/05/24 10:54:01;;;;;;;;;;;16.50;99.90;;;;;;5070292;28;19971;-65
2022/05/24 10:56:30;;;;;;;;;;;16.60;99.90;;;;;;5069030;28;20017;-64
2022/05/24 10:58:59;;;;;;;;;;;17.20;99.90;;;;;;5068832;28;20008;-65
2022/05/24 11:01:28;;;;;;;;;;;17.70;99.90;;;;;;5069029;28;20036;-65
2022/05/24 11:03:57;;;;;;;;;;;17.90;99.90;;;;;;5070354;28;20475;-65
2022/05/24 11:06:27;;;;;;;;;;;17.60;99.90;;;;;;5072598;28;19951;-65
2022/05/24 11:08:58;;;;;;;;;;;17.70;99.90;;;;;;5072359;28;19960;-65
2022/05/24 11:11:27;;;;;;;;;;;18.00;99.90;;;;;;5072599;28;20470;-65
2022/05/24 11:13:55;;;;;;;;;;;18.00;99.90;;;;;;5072125;28;19924;-65
2022/05/24 11:16:23;;;;;;;;;;;17.80;99.90;;;;;;5072506;28;19929;-65
2022/05/24 11:18:50;;;;;;;;;;;17.70;99.90;;;;;;5071916;28;19978;-65
2022/05/24 11:21:22;;;;;;;;;;;17.60;99.90;;;;;;5072425;28;19924;-65
2022/05/24 11:23:50;;;;;;;;;;;17.50;99.90;;;;;;5072237;28;19924;-64
2022/05/24 11:26:21;;;;;;;;;;;17.70;99.90;;;;;;5072461;28;20296;-65
2022/05/24 11:28:51;;;;;;;;;;;18.20;99.90;;;;;;5071801;28;19939;-66
2022/05/24 11:31:21;;;;;;;;;;;18.50;99.90;;;;;;5072128;28;19935;-65
2022/05/24 11:33:49;;;;;;;;;;;18.70;99.90;;;;;;5071835;28;19924;-65
2022/05/24 11:36:34;;;;;;;;;;;18.60;99.90;;;;;;5072061;28;20023;-65
2022/05/24 11:39:06;;;;;;;;;;;18.60;99.90;;;;;;5071537;28;19925;-65
2022/05/24 11:41:34;;;;;;;;;;;19.10;99.90;;;;;;5072233;28;19928;-65
2022/05/24 11:44:03;;;;;;;;;;;20.00;99.90;;;;;;5071581;28;19952;-65
2022/05/24 11:46:42;;;;;;;;;;;19.90;99.90;;;;;;5072114;28;19924;-65
2022/05/24 11:49:10;;;;;;;;;;;20.80;99.90;;;;;;5071541;28;19930;-65
2022/05/24 11:51:39;;;;;;;;;;;20.70;99.90;;;;;;5071948;28;19928;-65
2022/05/24 11:54:07;;;;;;;;;;;20.20;99.90;;;;;;5071838;28;19924;-65
2022/05/24 11:56:38;;;;;;;;;;;19.90;99.90;;;;;;5072006;28;19924;-65
2022/05/24 11:59:05;;;;;;;;;;;19.90;99.90;;;;;;5071567;28;19924;-65
2022/05/24 12:01:37;;;;;;;;;;;19.70;99.90;;;;;;5071843;28;20029;-65
2022/05/24 12:09:54;;;;;;;;;;;18.60;99.90;;;;;;5040607;28;19924;-64
2022/05/24 12:12:29;;;;;;;;;;;18.20;99.90;;;;;;5053423;28;19935;-65
2022/05/24 12:15:06;;;;;;;;;;;18.10;99.90;;;;;;5051026;28;19978;-65
2022/05/24 12:17:33;;;;;;;;;;;18.40;99.90;;;;;;5051387;28;19982;-65
2022/05/24 12:19:59;;;;;;;;;;;18.40;99.90;;;;;;5050935;28;19924;-65
2022/05/24 12:22:30;;;;;;;;;;;18.30;99.90;;;;;;5051360;28;20458;-65
2022/05/24 12:24:58;;;;;;;;;;;18.10;99.90;;;;;;5050827;28;20396;-65
2022/05/24 12:27:36;;;;;;;;;;;17.70;99.90;;;;;;5060265;28;19932;-65
2022/05/24 12:30:18;;;;;;;;;;;17.60;99.90;;;;;;5104766;28;19924;-65
2022/05/24 12:32:45;;;;;;;;;;;17.70;99.90;;;;;;5104674;28;19928;-65
2022/05/24 12:35:14;;;;;;;;;;;18.20;99.90;;;;;;5070925;28;19928;-65
2022/05/24 12:37:44;;;;;;;;;;;18.90;99.90;;;;;;5104596;28;19968;-65
2022/05/24 12:40:13;;;;;;;;;;;19.30;99.90;;;;;;5104389;28;19928;-66
2022/05/24 12:42:46;;;;;;;;;;;19.30;99.90;;;;;;5104961;28;19978;-65
2022/05/24 12:45:14;;;;;;;;;;;19.00;99.90;;;;;;5104362;28;20343;-65
2022/05/24 12:47:42;;;;;;;;;;;18.70;99.90;;;;;;5104495;28;20395;-65
2022/05/24 12:50:22;;;;;;;;;;;18.50;99.90;;;;;;5103964;28;19929;-65
2022/05/24 12:52:49;;;;;;;;;;;18.50;99.90;;;;;;5104559;28;20361;-65
2022/05/24 12:55:54;;;;;;;;;;;18.70;99.90;;;;;;5070318;28;19928;-65
2022/05/24 12:58:23;;;;;;;;;;;18.90;99.90;;;;;;5070291;28;19925;-65
2022/05/24 13:00:50;;;;;;;;;;;18.90;99.90;;;;;;5103834;28;19928;-65
2022/05/24 13:03:22;;;;;;;;;;;19.60;99.90;;;;;;5070513;28;19925;-64
2022/05/24 13:05:57;;;;;;;;;;;20.30;99.90;;;;;;5104229;28;19947;-66
2022/05/24 13:08:25;;;;;;;;;;;21.80;99.90;;;;;;5104273;28;19924;-65
2022/05/24 13:10:52;;;;;;;;;;;21.70;99.90;;;;;;5101112;28;19924;-66
2022/05/24 13:13:22;;;;;;;;;;;20.70;99.90;;;;;;5070106;28;19924;-65
2022/05/24 13:15:50;;;;;;;;;;;19.60;99.90;;;;;;5070129;28;20334;-65
2022/05/24 13:18:20;;;;;;;;;;;18.80;99.90;;;;;;5086921;28;19924;-65
2022/05/24 13:20:48;;;;;;;;;;;18.50;99.90;;;;;;5069784;28;20396;-65
2022/05/24 13:23:23;;;;;;;;;;;18.20;99.90;;;;;;5070040;28;19977;-65
2022/05/24 13:25:51;;;;;;;;;;;18.60;99.90;;;;;;5069277;28;19940;-65
2022/05/24 13:28:40;;;;;;;;;;;18.50;99.90;;;;;;5069968;28;19928;-65
2022/05/24 13:33:53;;;;;;;;;;;18.90;99.90;;;;;;5070925;28;19928;-65
2022/05/24 13:36:21;;;;;;;;;;;20.30;99.90;;;;;;5069971;28;20014;-65
2022/05/24 13:38:50;;;;;;;;;;;21.80;99.90;;;;;;5069428;28;20388;-64
2022/05/24 13:41:26;;;;;;;;;;;22.20;99.90;;;;;;5070027;28;19935;-65
2022/05/24 13:44:07;;;;;;;;;;;23.30;99.90;;;;;;5069854;28;19924;-65
2022/05/24 13:46:47;;;;;;;;;;;22.60;99.90;;;;;;5069799;28;20023;-65
2022/05/24 13:49:25;;;;;;;;;;;21.30;99.90;;;;;;5069514;28;19924;-65
2022/05/24 13:51:52;;;;;;;;;;;20.70;99.90;;;;;;5069837;28;20035;-65
2022/05/24 13:54:31;;;;;;;;;;;19.70;99.90;;;;;;5069605;28;19972;-65
2022/05/24 13:56:58;;;;;;;;;;;19.00;99.90;;;;;;5070930;28;19972;-65
2022/05/24 13:59:26;;;;;;;;;;;18.60;99.90;;;;;;5069527;28;20026;-65
2022/05/24 14:01:55;;;;;;;;;;;18.50;99.90;;;;;;5069831;28;20349;-65
2022/05/24 14:04:23;;;;;;;;;;;19.30;99.90;;;;;;5069165;28;20392;-65
2022/05/24 14:06:51;;;;;;;;;;;20.20;99.90;;;;;;5069944;28;20299;-65
2022/05/24 14:09:18;;;;;;;;;;;19.50;99.90;;;;;;5069173;28;19974;-65
2022/05/24 14:11:50;;;;;;;;;;;17.70;99.90;;;;;;5056265;28;20040;-65
2022/05/24 14:14:17;;;;;;;;;;;16.50;99.90;;;;;;5048887;28;20358;-65
2022/05/24 14:16:46;;;;;;;;;;;15.70;99.90;;;;;;5049727;28;19925;-65
2022/05/24 14:19:13;;;;;;;;;;;15.40;99.90;;;;;;5049351;28;19932;-65
2022/05/24 14:21:41;;;;;;;;;;;15.30;99.90;;;;;;5049450;28;20023;-65
2022/05/24 14:24:12;;;;;;;;;;;15.40;99.90;;;;;;5049018;28;20381;-65
2022/05/24 14:26:39;;;;;;;;;;;15.50;99.90;;;;;;5049691;28;19975;-65
2022/05/24 14:29:06;;;;;;;;;;;15.60;99.90;;;;;;5048967;28;19987;-65
2022/05/24 14:31:33;;;;;;;;;;;15.60;99.90;;;;;;5049663;28;20285;-65
2022/05/24 14:34:03;;;;;;;;;;;16.00;99.90;;;;;;5049066;28;19925;-65
2022/05/24 14:36:29;;;;;;;;;;;16.50;99.90;;;;;;5049467;28;20000;-65
2022/05/24 14:38:56;;;;;;;;;;;16.90;99.90;;;;;;5051068;28;19979;-65
2022/05/24 14:41:23;;;;;;;;;;;17.80;99.90;;;;;;5053344;28;19986;-66
2022/05/24 14:43:51;;;;;;;;;;;19.10;99.90;;;;;;5052767;28;20457;-66
2022/05/24 14:46:18;;;;;;;;;;;20.30;99.90;;;;;;5053040;28;19935;-66
2022/05/24 14:48:46;;;;;;;;;;;21.50;99.90;;;;;;5053007;28;19964;-66
2022/05/24 14:51:15;;;;;;;;;;;22.70;99.90;;;;;;5052766;28;19931;-65
2022/05/24 14:53:41;;;;;;;;;;;22.60;99.90;;;;;;5052645;28;19925;-65
2022/05/24 14:56:08;;;;;;;;;;;21.00;99.90;;;;;;5053128;28;19928;-66
2022/05/24 14:58:35;;;;;;;;;;;19.90;99.90;;;;;;5052763;28;20358;-65
2022/05/24 15:01:02;;;;;;;;;;;19.10;99.90;;;;;;5052475;28;19974;-66
2022/05/24 15:03:29;;;;;;;;;;;17.80;99.90;;;;;;5052543;28;19932;-65
2022/05/24 15:05:55;;;;;;;;;;;17.20;99.90;;;;;;5052837;28;20350;-66
2022/05/24 15:16:36;;;;;;;;;;;16.20;99.90;;;;;;5072670;28;19974;-66
2022/05/24 15:19:03;;;;;;;;;;;16.20;99.90;;;;;;5072112;28;19928;-66
2022/05/24 15:21:31;;;;;;;;;;;16.20;99.90;;;;;;5072616;28;20035;-65
2022/05/24 15:24:02;;;;;;;;;;;16.40;99.90;;;;;;5072182;28;20017;-66